sensor_id;sensor_type;location;lat;lon;timestamp;pressure;altitude;pressure_sealevel;temperature;humidity
71109;BME280;59614;51.012;-1.648;2024-02-23T00:00:10;97798.03;;;4.51;100.00
71109;BME280;59614;51.012;-1.648;2024-02-23T00:02:37;97799.88;;;4.48;100.00
71109;BME280;59614;51.012;-1.648;2024-02-23T00:05:02;97788.19;;;4.59;100.00
71109;BME280;59614;51.012;-1.648;2024-02-23T00:07:27;97785.94;;;4.48;100.00
71109;BME280;59614;51.012;-1.648;2024-02-23T00:09:53;97775.50;;;4.48;100.00
71109;BME280;59614;51.012;-1.648;2024-02-23T00:12:18;97776.13;;;4.55;100.00
71109;BME280;59614;51.012;-1.648;2024-02-23T00:14:43;97768.19;;;4.58;100.00
71109;BME280;59614;51.012;-1.648;2024-02-23T00:17:09;97766.34;;;4.61;100.00
71109;BME280;59614;51.012;-1.648;2024-02-23T00:19:34;97763.56;;;4.66;100.00
71109;BME280;59614;51.012;-1.648;2024-02-23T00:21:59;97755.97;;;4.58;100.00
71109;BME280;59614;51.012;-1.648;2024-02-23T00:24:25;97754.75;;;4.69;100.00
71109;BME280;59614;51.012;-1.648;2024-02-23T00:26:51;97748.50;;;4.73;100.00
71109;BME280;59614;51.012;-1.648;2024-02-23T00:29:17;97737.22;;;4.72;100.00
71109;BME280;59614;51.012;-1.648;2024-02-23T00:31:42;97744.03;;;4.76;100.00
71109;BME280;59614;51.012;-1.648;2024-02-23T00:34:08;97745.72;;;4.77;100.00
71109;BME280;59614;51.012;-1.648;2024-02-23T00:36:38;97729.16;;;4.78;100.00
71109;BME280;59614;51.012;-1.648;2024-02-23T00:39:03;97727.69;;;4.71;100.00
71109;BME280;59614;51.012;-1.648;2024-02-23T00:41:29;97730.84;;;4.79;100.00
71109;BME280;59614;51.012;-1.648;2024-02-23T00:43:54;97719.16;;;4.90;100.00
71109;BME280;59614;51.012;-1.648;2024-02-23T00:46:19;97719.03;;;4.69;100.00
71109;BME280;59614;51.012;-1.648;2024-02-23T00:48:45;97714.38;;;4.77;100.00
71109;BME280;59614;51.012;-1.648;2024-02-23T00:51:10;97709.38;;;4.71;100.00
71109;BME280;59614;51.012;-1.648;2024-02-23T00:53:35;97717.34;;;4.92;100.00
71109;BME280;59614;51.012;-1.648;2024-02-23T00:56:01;97703.66;;;4.85;100.00
71109;BME280;59614;51.012;-1.648;2024-02-23T00:58:26;97699.25;;;4.86;100.00
71109;BME280;59614;51.012;-1.648;2024-02-23T01:00:52;97699.06;;;5.14;100.00
71109;BME280;59614;51.012;-1.648;2024-02-23T01:03:17;97691.72;;;5.24;100.00
71109;BME280;59614;51.012;-1.648;2024-02-23T01:05:43;97694.16;;;5.29;100.00
71109;BME280;59614;51.012;-1.648;2024-02-23T01:08:08;97688.63;;;5.36;100.00
71109;BME280;59614;51.012;-1.648;2024-02-23T01:10:34;97686.56;;;5.45;100.00
71109;BME280;59614;51.012;-1.648;2024-02-23T01:12:59;97683.63;;;5.30;100.00
71109;BME280;59614;51.012;-1.648;2024-02-23T01:15:25;97680.84;;;5.13;100.00
71109;BME280;59614;51.012;-1.648;2024-02-23T01:17:50;97665.94;;;5.15;100.00
71109;BME280;59614;51.012;-1.648;2024-02-23T01:20:15;97662.91;;;5.25;100.00
71109;BME280;59614;51.012;-1.648;2024-02-23T01:22:42;97653.97;;;5.31;100.00
71109;BME280;59614;51.012;-1.648;2024-02-23T01:25:07;97652.88;;;5.37;100.00
71109;BME280;59614;51.012;-1.648;2024-02-23T01:27:33;97651.34;;;5.53;100.00
71109;BME280;59614;51.012;-1.648;2024-02-23T01:29:58;97658.09;;;5.59;100.00
71109;BME280;59614;51.012;-1.648;2024-02-23T01:32:23;97644.81;;;5.41;100.00
71109;BME280;59614;51.012;-1.648;2024-02-23T01:34:49;97643.81;;;5.46;100.00
71109;BME280;59614;51.012;-1.648;2024-02-23T01:37:14;97651.03;;;5.61;100.00
71109;BME280;59614;51.012;-1.648;2024-02-23T01:39:39;97647.34;;;5.65;100.00
71109;BME280;59614;51.012;-1.648;2024-02-23T01:42:05;97652.75;;;5.62;100.00
71109;BME280;59614;51.012;-1.648;2024-02-23T01:44:30;97650.69;;;5.69;100.00
71109;BME280;59614;51.012;-1.648;2024-02-23T01:46:56;97641.88;;;5.71;100.00
71109;BME280;59614;51.012;-1.648;2024-02-23T01:49:21;97643.91;;;5.65;100.00
71109;BME280;59614;51.012;-1.648;2024-02-23T01:51:48;97644.13;;;5.81;100.00
71109;BME280;59614;51.012;-1.648;2024-02-23T01:54:16;97634.56;;;5.80;100.00
71109;BME280;59614;51.012;-1.648;2024-02-23T01:56:41;97624.75;;;5.85;100.00
71109;BME280;59614;51.012;-1.648;2024-02-23T01:59:09;97617.31;;;5.96;100.00
71109;BME280;59614;51.012;-1.648;2024-02-23T02:01:35;97618.06;;;5.98;100.00
71109;BME280;59614;51.012;-1.648;2024-02-23T02:04:01;97609.28;;;6.01;100.00
71109;BME280;59614;51.012;-1.648;2024-02-23T02:06:26;97612.66;;;6.03;100.00
71109;BME280;59614;51.012;-1.648;2024-02-23T02:08:52;97613.41;;;6.07;100.00
71109;BME280;59614;51.012;-1.648;2024-02-23T02:11:18;97619.28;;;6.12;100.00
71109;BME280;59614;51.012;-1.648;2024-02-23T02:13:43;97610.50;;;6.13;100.00
71109;BME280;59614;51.012;-1.648;2024-02-23T02:16:09;97616.41;;;6.18;100.00
71109;BME280;59614;51.012;-1.648;2024-02-23T02:18:35;97626.72;;;6.21;100.00
71109;BME280;59614;51.012;-1.648;2024-02-23T02:21:00;97614.69;;;6.17;100.00
71109;BME280;59614;51.012;-1.648;2024-02-23T02:23:25;97604.63;;;6.08;100.00
71109;BME280;59614;51.012;-1.648;2024-02-23T02:25:57;97611.69;;;6.06;100.00
71109;BME280;59614;51.012;-1.648;2024-02-23T02:28:24;97606.38;;;6.07;100.00
71109;BME280;59614;51.012;-1.648;2024-02-23T02:30:50;97610.63;;;6.10;100.00
71109;BME280;59614;51.012;-1.648;2024-02-23T02:33:15;97613.00;;;6.16;100.00
71109;BME280;59614;51.012;-1.648;2024-02-23T02:35:41;97607.63;;;6.19;100.00
71109;BME280;59614;51.012;-1.648;2024-02-23T02:38:06;97615.63;;;6.16;100.00
71109;BME280;59614;51.012;-1.648;2024-02-23T02:40:31;97609.50;;;6.15;100.00
71109;BME280;59614;51.012;-1.648;2024-02-23T02:42:57;97609.19;;;6.02;100.00
71109;BME280;59614;51.012;-1.648;2024-02-23T02:45:23;97608.22;;;6.05;100.00
71109;BME280;59614;51.012;-1.648;2024-02-23T02:47:49;97603.13;;;6.02;100.00
71109;BME280;59614;51.012;-1.648;2024-02-23T02:50:15;97606.31;;;6.09;100.00
71109;BME280;59614;51.012;-1.648;2024-02-23T02:52:40;97607.09;;;6.11;100.00
71109;BME280;59614;51.012;-1.648;2024-02-23T02:55:06;97601.94;;;6.09;100.00
71109;BME280;59614;51.012;-1.648;2024-02-23T02:57:31;97608.66;;;5.94;100.00
71109;BME280;59614;51.012;-1.648;2024-02-23T02:59:56;97609.63;;;5.92;100.00
71109;BME280;59614;51.012;-1.648;2024-02-23T03:02:22;97609.63;;;5.92;100.00
71109;BME280;59614;51.012;-1.648;2024-02-23T03:04:48;97619.44;;;5.86;100.00
71109;BME280;59614;51.012;-1.648;2024-02-23T03:07:14;97612.81;;;5.98;100.00
71109;BME280;59614;51.012;-1.648;2024-02-23T03:09:39;97615.44;;;5.98;100.00
71109;BME280;59614;51.012;-1.648;2024-02-23T03:12:05;97626.31;;;5.89;100.00
71109;BME280;59614;51.012;-1.648;2024-02-23T03:14:30;97619.91;;;5.96;100.00
71109;BME280;59614;51.012;-1.648;2024-02-23T03:16:55;97617.34;;;5.95;100.00
71109;BME280;59614;51.012;-1.648;2024-02-23T03:19:21;97612.94;;;5.75;100.00
71109;BME280;59614;51.012;-1.648;2024-02-23T03:21:48;97620.44;;;5.84;100.00
71109;BME280;59614;51.012;-1.648;2024-02-23T03:24:13;97616.25;;;5.80;100.00
71109;BME280;59614;51.012;-1.648;2024-02-23T03:26:39;97626.91;;;5.75;100.00
71109;BME280;59614;51.012;-1.648;2024-02-23T03:29:04;97629.53;;;5.75;100.00
71109;BME280;59614;51.012;-1.648;2024-02-23T03:31:29;97620.97;;;5.71;100.00
71109;BME280;59614;51.012;-1.648;2024-02-23T03:33:55;97626.31;;;5.68;100.00
71109;BME280;59614;51.012;-1.648;2024-02-23T03:36:20;97622.91;;;5.66;100.00
71109;BME280;59614;51.012;-1.648;2024-02-23T03:38:47;97625.72;;;5.62;100.00
71109;BME280;59614;51.012;-1.648;2024-02-23T03:41:12;97632.16;;;5.53;100.00
71109;BME280;59614;51.012;-1.648;2024-02-23T03:43:37;97632.31;;;5.50;100.00
71109;BME280;59614;51.012;-1.648;2024-02-23T03:46:03;97630.34;;;5.55;100.00
71109;BME280;59614;51.012;-1.648;2024-02-23T03:48:29;97624.31;;;5.53;100.00
71109;BME280;59614;51.012;-1.648;2024-02-23T03:50:54;97631.50;;;5.48;100.00
71109;BME280;59614;51.012;-1.648;2024-02-23T03:53:19;97624.47;;;5.50;100.00
71109;BME280;59614;51.012;-1.648;2024-02-23T03:55:45;97623.56;;;5.51;100.00
71109;BME280;59614;51.012;-1.648;2024-02-23T03:58:10;97631.13;;;5.57;100.00
71109;BME280;59614;51.012;-1.648;2024-02-23T04:00:35;97632.03;;;5.56;100.00
71109;BME280;59614;51.012;-1.648;2024-02-23T04:03:01;97642.59;;;5.54;100.00
71109;BME280;59614;51.012;-1.648;2024-02-23T04:05:26;97653.16;;;5.51;100.00
71109;BME280;59614;51.012;-1.648;2024-02-23T04:07:51;97648.72;;;5.53;100.00
71109;BME280;59614;51.012;-1.648;2024-02-23T04:10:17;97652.25;;;5.52;100.00
71109;BME280;59614;51.012;-1.648;2024-02-23T04:12:46;97663.63;;;5.51;100.00
71109;BME280;59614;51.012;-1.648;2024-02-23T04:15:12;97664.47;;;5.52;100.00
71109;BME280;59614;51.012;-1.648;2024-02-23T04:17:37;97654.06;;;5.50;100.00
71109;BME280;59614;51.012;-1.648;2024-02-23T04:20:06;97652.34;;;5.51;100.00
71109;BME280;59614;51.012;-1.648;2024-02-23T04:22:32;97652.44;;;5.48;100.00
71109;BME280;59614;51.012;-1.648;2024-02-23T04:24:58;97653.47;;;5.44;100.00
71109;BME280;59614;51.012;-1.648;2024-02-23T04:27:23;97647.22;;;5.48;100.00
71109;BME280;59614;51.012;-1.648;2024-02-23T04:29:48;97656.16;;;5.42;100.00
71109;BME280;59614;51.012;-1.648;2024-02-23T04:32:14;97650.22;;;5.38;100.00
71109;BME280;59614;51.012;-1.648;2024-02-23T04:34:39;97668.44;;;5.40;100.00
71109;BME280;59614;51.012;-1.648;2024-02-23T04:37:06;97670.16;;;5.41;100.00
71109;BME280;59614;51.012;-1.648;2024-02-23T04:39:31;97663.22;;;5.40;100.00
71109;BME280;59614;51.012;-1.648;2024-02-23T04:41:57;97668.38;;;5.41;100.00
71109;BME280;59614;51.012;-1.648;2024-02-23T04:44:23;97665.53;;;5.48;100.00
71109;BME280;59614;51.012;-1.648;2024-02-23T04:46:48;97673.47;;;5.45;100.00
71109;BME280;59614;51.012;-1.648;2024-02-23T04:49:14;97668.25;;;5.45;100.00
71109;BME280;59614;51.012;-1.648;2024-02-23T04:51:39;97669.69;;;5.52;100.00
71109;BME280;59614;51.012;-1.648;2024-02-23T04:54:05;97677.00;;;5.44;100.00
71109;BME280;59614;51.012;-1.648;2024-02-23T04:56:30;97674.47;;;5.42;100.00
71109;BME280;59614;51.012;-1.648;2024-02-23T04:58:56;97673.69;;;5.40;100.00
71109;BME280;59614;51.012;-1.648;2024-02-23T05:01:21;97680.69;;;5.39;100.00
71109;BME280;59614;51.012;-1.648;2024-02-23T05:03:46;97690.34;;;5.37;100.00
71109;BME280;59614;51.012;-1.648;2024-02-23T05:06:12;97688.53;;;5.39;100.00
71109;BME280;59614;51.012;-1.648;2024-02-23T05:08:38;97686.81;;;5.38;100.00
71109;BME280;59614;51.012;-1.648;2024-02-23T05:11:03;97682.25;;;5.44;100.00
71109;BME280;59614;51.012;-1.648;2024-02-23T05:13:29;97677.63;;;5.50;100.00
71109;BME280;59614;51.012;-1.648;2024-02-23T05:15:55;97680.44;;;5.46;100.00
71109;BME280;59614;51.012;-1.648;2024-02-23T05:18:20;97683.94;;;5.45;100.00
71109;BME280;59614;51.012;-1.648;2024-02-23T05:20:46;97677.88;;;5.44;100.00
71109;BME280;59614;51.012;-1.648;2024-02-23T05:23:11;97694.34;;;5.46;100.00
71109;BME280;59614;51.012;-1.648;2024-02-23T05:25:36;97692.81;;;5.40;100.00
71109;BME280;59614;51.012;-1.648;2024-02-23T05:28:02;97689.66;;;5.32;100.00
71109;BME280;59614;51.012;-1.648;2024-02-23T05:30:27;97688.38;;;5.43;100.00
71109;BME280;59614;51.012;-1.648;2024-02-23T05:32:56;97693.50;;;5.46;100.00
71109;BME280;59614;51.012;-1.648;2024-02-23T05:35:22;97691.97;;;5.40;100.00
71109;BME280;59614;51.012;-1.648;2024-02-23T05:37:47;97680.53;;;5.43;100.00
71109;BME280;59614;51.012;-1.648;2024-02-23T05:40:14;97674.09;;;5.51;100.00
71109;BME280;59614;51.012;-1.648;2024-02-23T05:42:40;97676.41;;;5.59;100.00
71109;BME280;59614;51.012;-1.648;2024-02-23T05:45:09;97670.25;;;5.60;100.00
71109;BME280;59614;51.012;-1.648;2024-02-23T05:47:38;97675.50;;;5.60;100.00
71109;BME280;59614;51.012;-1.648;2024-02-23T05:50:04;97682.44;;;5.61;100.00
71109;BME280;59614;51.012;-1.648;2024-02-23T05:52:33;97687.09;;;5.53;100.00
71109;BME280;59614;51.012;-1.648;2024-02-23T05:54:59;97682.66;;;5.55;100.00
71109;BME280;59614;51.012;-1.648;2024-02-23T05:57:28;97683.72;;;5.51;100.00
71109;BME280;59614;51.012;-1.648;2024-02-23T05:59:53;97684.66;;;5.48;100.00
71109;BME280;59614;51.012;-1.648;2024-02-23T06:02:20;97691.63;;;5.49;100.00
71109;BME280;59614;51.012;-1.648;2024-02-23T06:04:45;97699.41;;;5.51;100.00
71109;BME280;59614;51.012;-1.648;2024-02-23T06:07:11;97702.94;;;5.50;100.00
71109;BME280;59614;51.012;-1.648;2024-02-23T06:09:36;97703.72;;;5.52;100.00
71109;BME280;59614;51.012;-1.648;2024-02-23T06:12:02;97703.06;;;5.47;100.00
71109;BME280;59614;51.012;-1.648;2024-02-23T06:14:28;97708.50;;;5.40;100.00
71109;BME280;59614;51.012;-1.648;2024-02-23T06:16:53;97708.50;;;5.40;100.00
71109;BME280;59614;51.012;-1.648;2024-02-23T06:19:18;97711.94;;;5.43;100.00
71109;BME280;59614;51.012;-1.648;2024-02-23T06:21:47;97713.75;;;5.40;100.00
71109;BME280;59614;51.012;-1.648;2024-02-23T06:24:13;97718.25;;;5.37;100.00
71109;BME280;59614;51.012;-1.648;2024-02-23T06:26:38;97709.50;;;5.38;100.00
71109;BME280;59614;51.012;-1.648;2024-02-23T06:29:03;97719.47;;;5.28;100.00
71109;BME280;59614;51.012;-1.648;2024-02-23T06:31:31;97713.50;;;5.24;100.00
71109;BME280;59614;51.012;-1.648;2024-02-23T06:33:58;97712.94;;;5.16;100.00
71109;BME280;59614;51.012;-1.648;2024-02-23T06:36:24;97714.56;;;5.19;100.00
71109;BME280;59614;51.012;-1.648;2024-02-23T06:38:49;97709.50;;;5.16;100.00
71109;BME280;59614;51.012;-1.648;2024-02-23T06:41:15;97707.69;;;5.18;100.00
71109;BME280;59614;51.012;-1.648;2024-02-23T06:43:40;97702.44;;;5.18;100.00
71109;BME280;59614;51.012;-1.648;2024-02-23T06:46:09;97702.66;;;5.12;100.00
71109;BME280;59614;51.012;-1.648;2024-02-23T06:48:35;97700.03;;;5.12;100.00
71109;BME280;59614;51.012;-1.648;2024-02-23T06:51:00;97702.00;;;5.06;100.00
71109;BME280;59614;51.012;-1.648;2024-02-23T06:53:26;97696.78;;;5.06;100.00
71109;BME280;59614;51.012;-1.648;2024-02-23T06:55:51;97700.97;;;5.10;100.00
71109;BME280;59614;51.012;-1.648;2024-02-23T06:58:16;97695.72;;;5.10;100.00
71109;BME280;59614;51.012;-1.648;2024-02-23T07:00:43;97694.03;;;5.09;100.00
71109;BME280;59614;51.012;-1.648;2024-02-23T07:03:09;97697.44;;;5.12;100.00
71109;BME280;59614;51.012;-1.648;2024-02-23T07:05:34;97713.06;;;5.13;100.00
71109;BME280;59614;51.012;-1.648;2024-02-23T07:08:01;97710.69;;;5.07;100.00
71109;BME280;59614;51.012;-1.648;2024-02-23T07:10:27;97722.13;;;5.04;100.00
71109;BME280;59614;51.012;-1.648;2024-02-23T07:12:53;97715.28;;;5.00;100.00
71109;BME280;59614;51.012;-1.648;2024-02-23T07:15:19;97720.41;;;5.03;100.00
71109;BME280;59614;51.012;-1.648;2024-02-23T07:17:45;97725.75;;;5.00;100.00
71109;BME280;59614;51.012;-1.648;2024-02-23T07:20:11;97728.91;;;5.08;100.00
71109;BME280;59614;51.012;-1.648;2024-02-23T07:22:36;97739.25;;;5.12;100.00
71109;BME280;59614;51.012;-1.648;2024-02-23T07:25:02;97730.50;;;5.13;100.00
71109;BME280;59614;51.012;-1.648;2024-02-23T07:27:29;97734.03;;;5.12;100.00
71109;BME280;59614;51.012;-1.648;2024-02-23T07:29:54;97734.84;;;5.14;100.00
71109;BME280;59614;51.012;-1.648;2024-02-23T07:32:20;97729.34;;;5.20;100.00
71109;BME280;59614;51.012;-1.648;2024-02-23T07:34:45;97735.72;;;5.36;100.00
71109;BME280;59614;51.012;-1.648;2024-02-23T07:37:10;97737.72;;;5.52;100.00
71109;BME280;59614;51.012;-1.648;2024-02-23T07:39:36;97731.66;;;5.51;100.00
71109;BME280;59614;51.012;-1.648;2024-02-23T07:42:01;97731.03;;;5.45;100.00
71109;BME280;59614;51.012;-1.648;2024-02-23T07:44:27;97742.41;;;5.44;100.00
71109;BME280;59614;51.012;-1.648;2024-02-23T07:46:53;97739.78;;;5.44;100.00
71109;BME280;59614;51.012;-1.648;2024-02-23T07:49:20;97740.84;;;5.39;100.00
71109;BME280;59614;51.012;-1.648;2024-02-23T07:51:45;97738.88;;;5.45;100.00
71109;BME280;59614;51.012;-1.648;2024-02-23T07:54:10;97736.19;;;5.46;100.00
71109;BME280;59614;51.012;-1.648;2024-02-23T07:56:36;97746.63;;;5.48;100.00
71109;BME280;59614;51.012;-1.648;2024-02-23T07:59:01;97756.03;;;5.52;100.00
71109;BME280;59614;51.012;-1.648;2024-02-23T08:01:28;97761.97;;;5.79;100.00
71109;BME280;59614;51.012;-1.648;2024-02-23T08:03:54;97761.63;;;5.87;100.00
71109;BME280;59614;51.012;-1.648;2024-02-23T08:06:19;97761.47;;;5.69;100.00
71109;BME280;59614;51.012;-1.648;2024-02-23T08:08:45;97765.38;;;5.59;100.00
71109;BME280;59614;51.012;-1.648;2024-02-23T08:11:10;97765.47;;;5.56;100.00
71109;BME280;59614;51.012;-1.648;2024-02-23T08:13:36;97767.66;;;5.45;100.00
71109;BME280;59614;51.012;-1.648;2024-02-23T08:16:01;97773.75;;;5.45;100.00
71109;BME280;59614;51.012;-1.648;2024-02-23T08:18:27;97779.47;;;5.33;100.00
71109;BME280;59614;51.012;-1.648;2024-02-23T08:20:52;97776.09;;;5.29;100.00
71109;BME280;59614;51.012;-1.648;2024-02-23T08:23:18;97781.03;;;5.37;100.00
71109;BME280;59614;51.012;-1.648;2024-02-23T08:25:47;97784.59;;;5.58;100.00
71109;BME280;59614;51.012;-1.648;2024-02-23T08:28:13;97786.63;;;5.74;100.00
71109;BME280;59614;51.012;-1.648;2024-02-23T08:30:38;97788.06;;;5.81;100.00
71109;BME280;59614;51.012;-1.648;2024-02-23T08:33:04;97785.53;;;5.79;100.00
71109;BME280;59614;51.012;-1.648;2024-02-23T08:35:30;97791.34;;;5.86;100.00
71109;BME280;59614;51.012;-1.648;2024-02-23T08:37:56;97784.84;;;5.96;100.00
71109;BME280;59614;51.012;-1.648;2024-02-23T08:40:21;97782.81;;;6.05;100.00
71109;BME280;59614;51.012;-1.648;2024-02-23T08:42:47;97790.56;;;6.28;100.00
71109;BME280;59614;51.012;-1.648;2024-02-23T08:45:12;97783.25;;;6.57;100.00
71109;BME280;59614;51.012;-1.648;2024-02-23T08:47:38;97782.19;;;6.82;100.00
71109;BME280;59614;51.012;-1.648;2024-02-23T08:50:05;97779.41;;;7.06;100.00
71109;BME280;59614;51.012;-1.648;2024-02-23T08:52:30;97776.81;;;7.25;100.00
71109;BME280;59614;51.012;-1.648;2024-02-23T08:54:56;97787.59;;;7.38;100.00
71109;BME280;59614;51.012;-1.648;2024-02-23T08:57:21;97778.66;;;7.42;100.00
71109;BME280;59614;51.012;-1.648;2024-02-23T08:59:49;97774.22;;;7.23;98.94
71109;BME280;59614;51.012;-1.648;2024-02-23T09:02:14;97783.53;;;7.69;99.39
71109;BME280;59614;51.012;-1.648;2024-02-23T09:04:39;97767.66;;;8.79;93.05
71109;BME280;59614;51.012;-1.648;2024-02-23T09:07:06;97777.75;;;8.34;93.77
71109;BME280;59614;51.012;-1.648;2024-02-23T09:09:31;97774.81;;;8.23;95.09
71109;BME280;59614;51.012;-1.648;2024-02-23T09:11:57;97781.22;;;8.17;93.69
71109;BME280;59614;51.012;-1.648;2024-02-23T09:14:22;97781.06;;;8.20;95.56
71109;BME280;59614;51.012;-1.648;2024-02-23T09:16:47;97781.94;;;8.21;95.99
71109;BME280;59614;51.012;-1.648;2024-02-23T09:19:16;97782.03;;;8.00;95.38
71109;BME280;59614;51.012;-1.648;2024-02-23T09:21:41;97785.75;;;7.96;95.11
71109;BME280;59614;51.012;-1.648;2024-02-23T09:24:07;97791.97;;;7.76;95.36
71109;BME280;59614;51.012;-1.648;2024-02-23T09:26:32;97792.03;;;7.93;95.16
71109;BME280;59614;51.012;-1.648;2024-02-23T09:28:57;97784.16;;;7.93;94.88
71109;BME280;59614;51.012;-1.648;2024-02-23T09:31:23;97791.22;;;8.10;95.03
71109;BME280;59614;51.012;-1.648;2024-02-23T09:33:48;97786.88;;;8.27;95.27
71109;BME280;59614;51.012;-1.648;2024-02-23T09:36:17;97793.84;;;8.45;95.26
71109;BME280;59614;51.012;-1.648;2024-02-23T09:38:42;97793.41;;;8.72;94.29
71109;BME280;59614;51.012;-1.648;2024-02-23T09:41:17;97793.63;;;8.85;93.58
71109;BME280;59614;51.012;-1.648;2024-02-23T09:43:44;97795.34;;;8.69;92.73
71109;BME280;59614;51.012;-1.648;2024-02-23T09:46:11;97791.84;;;8.68;94.49
71109;BME280;59614;51.012;-1.648;2024-02-23T09:48:38;97793.81;;;8.82;94.62
71109;BME280;59614;51.012;-1.648;2024-02-23T09:51:04;97794.50;;;8.68;93.29
71109;BME280;59614;51.012;-1.648;2024-02-23T09:53:31;97793.34;;;8.56;93.29
71109;BME280;59614;51.012;-1.648;2024-02-23T09:55:57;97789.41;;;8.65;94.01
71109;BME280;59614;51.012;-1.648;2024-02-23T09:58:26;97789.22;;;8.86;93.16
71109;BME280;59614;51.012;-1.648;2024-02-23T10:00:56;97787.75;;;9.14;93.45
71109;BME280;59614;51.012;-1.648;2024-02-23T10:03:22;97788.94;;;9.41;92.93
71109;BME280;59614;51.012;-1.648;2024-02-23T10:05:51;97791.25;;;9.14;93.24
71109;BME280;59614;51.012;-1.648;2024-02-23T10:08:16;97796.78;;;9.09;93.91
71109;BME280;59614;51.012;-1.648;2024-02-23T10:10:41;97788.53;;;9.65;91.85
71109;BME280;59614;51.012;-1.648;2024-02-23T10:13:07;97793.84;;;9.64;89.76
71109;BME280;59614;51.012;-1.648;2024-02-23T10:15:33;97799.84;;;9.67;88.44
71109;BME280;59614;51.012;-1.648;2024-02-23T10:17:58;97808.06;;;9.61;89.39
71109;BME280;59614;51.012;-1.648;2024-02-23T10:20:24;97807.28;;;9.75;88.08
71109;BME280;59614;51.012;-1.648;2024-02-23T10:22:49;97808.63;;;10.14;88.28
71109;BME280;59614;51.012;-1.648;2024-02-23T10:25:14;97811.47;;;9.95;87.86
71109;BME280;59614;51.012;-1.648;2024-02-23T10:27:43;97814.75;;;10.15;88.03
71109;BME280;59614;51.012;-1.648;2024-02-23T10:30:08;97816.22;;;10.04;86.98
71109;BME280;59614;51.012;-1.648;2024-02-23T10:32:38;97818.94;;;10.03;86.38
71109;BME280;59614;51.012;-1.648;2024-02-23T10:35:09;97809.09;;;9.74;86.22
71109;BME280;59614;51.012;-1.648;2024-02-23T10:37:35;97810.31;;;9.35;86.88
71109;BME280;59614;51.012;-1.648;2024-02-23T10:40:01;97826.78;;;9.05;87.81
71109;BME280;59614;51.012;-1.648;2024-02-23T10:42:30;97827.19;;;9.15;87.88
71109;BME280;59614;51.012;-1.648;2024-02-23T10:44:58;97824.88;;;9.25;87.11
71109;BME280;59614;51.012;-1.648;2024-02-23T10:47:26;97836.06;;;9.46;87.65
71109;BME280;59614;51.012;-1.648;2024-02-23T10:49:53;97827.25;;;9.95;86.88
71109;BME280;59614;51.012;-1.648;2024-02-23T10:52:22;97828.28;;;9.93;85.08
71109;BME280;59614;51.012;-1.648;2024-02-23T10:54:49;97822.34;;;9.73;86.48
71109;BME280;59614;51.012;-1.648;2024-02-23T10:57:17;97822.75;;;9.49;85.47
71109;BME280;59614;51.012;-1.648;2024-02-23T10:59:45;97818.25;;;9.51;84.76
71109;BME280;59614;51.012;-1.648;2024-02-23T11:02:11;97819.78;;;9.71;86.31
71109;BME280;59614;51.012;-1.648;2024-02-23T11:04:41;97823.19;;;10.05;87.03
71109;BME280;59614;51.012;-1.648;2024-02-23T11:07:13;97833.97;;;10.17;84.85
71109;BME280;59614;51.012;-1.648;2024-02-23T11:09:39;97826.13;;;10.31;85.88
71109;BME280;59614;51.012;-1.648;2024-02-23T11:12:05;97822.31;;;10.21;83.65
71109;BME280;59614;51.012;-1.648;2024-02-23T11:14:37;97830.72;;;10.28;84.32
71109;BME280;59614;51.012;-1.648;2024-02-23T11:17:03;97824.84;;;10.23;85.05
71109;BME280;59614;51.012;-1.648;2024-02-23T11:19:32;97823.50;;;10.47;83.06
71109;BME280;59614;51.012;-1.648;2024-02-23T11:21:59;97815.84;;;10.43;82.40
71109;BME280;59614;51.012;-1.648;2024-02-23T11:24:28;97809.53;;;10.29;83.12
71109;BME280;59614;51.012;-1.648;2024-02-23T11:27:00;97821.13;;;10.43;82.05
71109;BME280;59614;51.012;-1.648;2024-02-23T11:29:33;97828.25;;;10.41;83.12
71109;BME280;59614;51.012;-1.648;2024-02-23T11:32:00;97823.94;;;10.24;83.81
71109;BME280;59614;51.012;-1.648;2024-02-23T11:34:30;97826.22;;;10.46;81.98
71109;BME280;59614;51.012;-1.648;2024-02-23T11:36:55;97827.22;;;10.43;83.25
71109;BME280;59614;51.012;-1.648;2024-02-23T11:39:22;97823.94;;;10.40;83.65
71109;BME280;59614;51.012;-1.648;2024-02-23T11:41:48;97826.75;;;10.04;82.49
71109;BME280;59614;51.012;-1.648;2024-02-23T11:44:15;97822.38;;;10.35;82.41
71109;BME280;59614;51.012;-1.648;2024-02-23T11:46:42;97823.94;;;10.40;82.34
71109;BME280;59614;51.012;-1.648;2024-02-23T11:49:08;97820.72;;;10.18;81.35
71109;BME280;59614;51.012;-1.648;2024-02-23T11:51:33;97811.13;;;10.01;82.10
71109;BME280;59614;51.012;-1.648;2024-02-23T11:53:58;97809.75;;;9.94;83.36
71109;BME280;59614;51.012;-1.648;2024-02-23T11:56:26;97812.53;;;9.59;81.79
71109;BME280;59614;51.012;-1.648;2024-02-23T11:58:54;97805.00;;;9.69;82.21
71109;BME280;59614;51.012;-1.648;2024-02-23T12:01:20;97808.81;;;9.63;83.67
71109;BME280;59614;51.012;-1.648;2024-02-23T12:03:45;97804.91;;;9.70;81.97
71109;BME280;59614;51.012;-1.648;2024-02-23T12:06:11;97803.81;;;9.58;83.36
71109;BME280;59614;51.012;-1.648;2024-02-23T12:08:36;97801.09;;;9.60;83.37
71109;BME280;59614;51.012;-1.648;2024-02-23T12:11:05;97799.31;;;9.61;83.28
71109;BME280;59614;51.012;-1.648;2024-02-23T12:13:32;97797.19;;;9.51;83.82
71109;BME280;59614;51.012;-1.648;2024-02-23T12:15:58;97794.47;;;9.53;83.95
71109;BME280;59614;51.012;-1.648;2024-02-23T12:18:23;97783.41;;;9.62;84.28
71109;BME280;59614;51.012;-1.648;2024-02-23T12:20:51;97787.84;;;9.62;83.92
71109;BME280;59614;51.012;-1.648;2024-02-23T12:23:16;97783.50;;;9.45;83.33
71109;BME280;59614;51.012;-1.648;2024-02-23T12:25:58;97782.06;;;9.55;82.27
71109;BME280;59614;51.012;-1.648;2024-02-23T12:28:24;97780.53;;;9.83;83.41
71109;BME280;59614;51.012;-1.648;2024-02-23T12:31:03;97778.47;;;10.04;82.95
71109;BME280;59614;51.012;-1.648;2024-02-23T12:33:31;97779.84;;;9.95;81.20
71109;BME280;59614;51.012;-1.648;2024-02-23T12:35:58;97773.56;;;9.82;80.58
71109;BME280;59614;51.012;-1.648;2024-02-23T12:38:23;97768.47;;;9.79;81.68
71109;BME280;59614;51.012;-1.648;2024-02-23T12:40:48;97776.44;;;9.77;80.25
71109;BME280;59614;51.012;-1.648;2024-02-23T12:43:14;97778.13;;;9.94;79.43
71109;BME280;59614;51.012;-1.648;2024-02-23T12:45:39;97771.00;;;9.96;80.32